sensor_id;sensor_type;location;lat;lon;timestamp;P1;durP1;ratioP1;P2;durP2;ratioP2
11646;SDS011;5880;52.342;9.662;2024-01-10T00:01:33;10.50;;;5.90;;
11646;SDS011;5880;52.342;9.662;2024-01-10T00:03:59;9.47;;;5.43;;
11646;SDS011;5880;52.342;9.662;2024-01-10T00:06:25;8.00;;;5.63;;
11646;SDS011;5880;52.342;9.662;2024-01-10T00:08:50;11.03;;;6.30;;
11646;SDS011;5880;52.342;9.662;2024-01-10T00:11:16;10.60;;;6.10;;
11646;SDS011;5880;52.342;9.662;2024-01-10T00:13:42;10.80;;;6.03;;
11646;SDS011;5880;52.342;9.662;2024-01-10T00:16:08;10.87;;;6.13;;
11646;SDS011;5880;52.342;9.662;2024-01-10T00:18:36;9.77;;;6.10;;
11646;SDS011;5880;52.342;9.662;2024-01-10T00:21:01;11.03;;;5.83;;
11646;SDS011;5880;52.342;9.662;2024-01-10T00:23:27;10.10;;;5.87;;
11646;SDS011;5880;52.342;9.662;2024-01-10T00:25:53;9.70;;;5.37;;
11646;SDS011;5880;52.342;9.662;2024-01-10T00:28:19;10.57;;;6.00;;
11646;SDS011;5880;52.342;9.662;2024-01-10T00:30:45;10.60;;;5.90;;
11646;SDS011;5880;52.342;9.662;2024-01-10T00:33:13;9.67;;;5.50;;
11646;SDS011;5880;52.342;9.662;2024-01-10T00:35:39;9.90;;;6.20;;
11646;SDS011;5880;52.342;9.662;2024-01-10T00:38:04;9.60;;;5.93;;
11646;SDS011;5880;52.342;9.662;2024-01-10T00:40:30;9.70;;;6.30;;
11646;SDS011;5880;52.342;9.662;2024-01-10T00:42:56;9.30;;;5.73;;
11646;SDS011;5880;52.342;9.662;2024-01-10T00:45:22;8.77;;;5.50;;
11646;SDS011;5880;52.342;9.662;2024-01-10T00:47:50;10.57;;;5.80;;
11646;SDS011;5880;52.342;9.662;2024-01-10T00:50:16;10.27;;;6.07;;
11646;SDS011;5880;52.342;9.662;2024-01-10T00:52:45;11.73;;;6.00;;
11646;SDS011;5880;52.342;9.662;2024-01-10T00:55:11;9.57;;;6.03;;
11646;SDS011;5880;52.342;9.662;2024-01-10T00:57:37;9.57;;;5.60;;
11646;SDS011;5880;52.342;9.662;2024-01-10T01:00:07;9.60;;;5.03;;
11646;SDS011;5880;52.342;9.662;2024-01-10T01:02:35;12.10;;;6.00;;
11646;SDS011;5880;52.342;9.662;2024-01-10T01:05:02;11.70;;;6.20;;
11646;SDS011;5880;52.342;9.662;2024-01-10T01:07:28;10.50;;;6.10;;
11646;SDS011;5880;52.342;9.662;2024-01-10T01:09:54;9.20;;;6.17;;
11646;SDS011;5880;52.342;9.662;2024-01-10T01:12:19;8.90;;;5.43;;
11646;SDS011;5880;52.342;9.662;2024-01-10T01:14:45;8.93;;;5.40;;
11646;SDS011;5880;52.342;9.662;2024-01-10T01:17:10;7.80;;;5.10;;
11646;SDS011;5880;52.342;9.662;2024-01-10T01:19:37;7.40;;;5.17;;
11646;SDS011;5880;52.342;9.662;2024-01-10T01:22:03;8.87;;;5.10;;
11646;SDS011;5880;52.342;9.662;2024-01-10T01:24:29;9.83;;;5.90;;
11646;SDS011;5880;52.342;9.662;2024-01-10T01:26:54;8.73;;;5.60;;
11646;SDS011;5880;52.342;9.662;2024-01-10T01:29:20;10.13;;;6.07;;
11646;SDS011;5880;52.342;9.662;2024-01-10T01:31:46;10.60;;;6.43;;
11646;SDS011;5880;52.342;9.662;2024-01-10T01:34:12;12.27;;;6.57;;
11646;SDS011;5880;52.342;9.662;2024-01-10T01:36:37;7.87;;;5.40;;
11646;SDS011;5880;52.342;9.662;2024-01-10T01:39:03;10.00;;;6.00;;
11646;SDS011;5880;52.342;9.662;2024-01-10T01:41:29;8.30;;;5.07;;
11646;SDS011;5880;52.342;9.662;2024-01-10T01:43:55;7.83;;;5.33;;
11646;SDS011;5880;52.342;9.662;2024-01-10T01:46:21;9.60;;;6.23;;
11646;SDS011;5880;52.342;9.662;2024-01-10T01:48:48;10.00;;;5.27;;
11646;SDS011;5880;52.342;9.662;2024-01-10T01:51:14;10.33;;;5.60;;
11646;SDS011;5880;52.342;9.662;2024-01-10T01:53:42;9.97;;;6.10;;
11646;SDS011;5880;52.342;9.662;2024-01-10T01:56:09;9.47;;;5.87;;
11646;SDS011;5880;52.342;9.662;2024-01-10T01:58:38;9.10;;;6.10;;
11646;SDS011;5880;52.342;9.662;2024-01-10T02:01:05;9.33;;;5.40;;
11646;SDS011;5880;52.342;9.662;2024-01-10T02:03:31;10.77;;;6.30;;
11646;SDS011;5880;52.342;9.662;2024-01-10T02:05:58;10.40;;;6.07;;
11646;SDS011;5880;52.342;9.662;2024-01-10T02:08:25;10.40;;;6.40;;
11646;SDS011;5880;52.342;9.662;2024-01-10T02:10:50;8.83;;;5.43;;
11646;SDS011;5880;52.342;9.662;2024-01-10T02:13:16;9.23;;;5.63;;
11646;SDS011;5880;52.342;9.662;2024-01-10T02:15:42;9.80;;;6.33;;
11646;SDS011;5880;52.342;9.662;2024-01-10T02:18:09;9.47;;;5.77;;
11646;SDS011;5880;52.342;9.662;2024-01-10T02:20:38;9.50;;;5.63;;
11646;SDS011;5880;52.342;9.662;2024-01-10T02:23:03;11.33;;;6.23;;
11646;SDS011;5880;52.342;9.662;2024-01-10T02:25:29;9.23;;;5.67;;
11646;SDS011;5880;52.342;9.662;2024-01-10T02:27:55;10.67;;;6.70;;
11646;SDS011;5880;52.342;9.662;2024-01-10T02:30:20;10.57;;;6.23;;
11646;SDS011;5880;52.342;9.662;2024-01-10T02:32:46;11.47;;;6.27;;
11646;SDS011;5880;52.342;9.662;2024-01-10T02:35:12;10.70;;;6.27;;
11646;SDS011;5880;52.342;9.662;2024-01-10T02:37:37;9.67;;;6.17;;
11646;SDS011;5880;52.342;9.662;2024-01-10T02:40:03;9.00;;;6.07;;
11646;SDS011;5880;52.342;9.662;2024-01-10T02:42:30;10.97;;;5.73;;
11646;SDS011;5880;52.342;9.662;2024-01-10T02:44:57;10.03;;;6.63;;
11646;SDS011;5880;52.342;9.662;2024-01-10T02:47:22;10.80;;;6.17;;
11646;SDS011;5880;52.342;9.662;2024-01-10T02:49:48;8.67;;;5.70;;
11646;SDS011;5880;52.342;9.662;2024-01-10T02:52:14;12.17;;;6.37;;
11646;SDS011;5880;52.342;9.662;2024-01-10T02:54:39;8.17;;;5.80;;
11646;SDS011;5880;52.342;9.662;2024-01-10T02:57:05;10.43;;;6.00;;
11646;SDS011;5880;52.342;9.662;2024-01-10T02:59:30;10.10;;;6.40;;
11646;SDS011;5880;52.342;9.662;2024-01-10T03:01:56;9.40;;;5.83;;
11646;SDS011;5880;52.342;9.662;2024-01-10T03:04:22;9.17;;;5.80;;
11646;SDS011;5880;52.342;9.662;2024-01-10T03:06:47;10.53;;;6.20;;
11646;SDS011;5880;52.342;9.662;2024-01-10T03:09:13;9.63;;;6.53;;
11646;SDS011;5880;52.342;9.662;2024-01-10T03:11:39;10.10;;;6.33;;
11646;SDS011;5880;52.342;9.662;2024-01-10T03:14:08;9.77;;;6.10;;
11646;SDS011;5880;52.342;9.662;2024-01-10T03:16:36;9.17;;;5.53;;
11646;SDS011;5880;52.342;9.662;2024-01-10T03:19:02;10.93;;;6.20;;
11646;SDS011;5880;52.342;9.662;2024-01-10T03:21:28;10.53;;;6.40;;
11646;SDS011;5880;52.342;9.662;2024-01-10T03:23:58;11.50;;;7.20;;
11646;SDS011;5880;52.342;9.662;2024-01-10T03:26:25;10.17;;;5.80;;
11646;SDS011;5880;52.342;9.662;2024-01-10T03:28:52;9.60;;;5.83;;
11646;SDS011;5880;52.342;9.662;2024-01-10T03:31:19;11.50;;;6.47;;
11646;SDS011;5880;52.342;9.662;2024-01-10T03:33:45;10.07;;;6.17;;
11646;SDS011;5880;52.342;9.662;2024-01-10T03:36:11;10.37;;;6.33;;
11646;SDS011;5880;52.342;9.662;2024-01-10T03:38:40;12.93;;;6.80;;
11646;SDS011;5880;52.342;9.662;2024-01-10T03:41:05;11.53;;;6.97;;
11646;SDS011;5880;52.342;9.662;2024-01-10T03:43:31;11.20;;;6.43;;
11646;SDS011;5880;52.342;9.662;2024-01-10T03:45:57;11.60;;;6.27;;
11646;SDS011;5880;52.342;9.662;2024-01-10T03:48:23;12.63;;;6.93;;
11646;SDS011;5880;52.342;9.662;2024-01-10T03:50:49;8.70;;;6.10;;
11646;SDS011;5880;52.342;9.662;2024-01-10T03:53:15;11.00;;;6.00;;
11646;SDS011;5880;52.342;9.662;2024-01-10T03:55:41;10.70;;;6.13;;
11646;SDS011;5880;52.342;9.662;2024-01-10T03:58:06;9.20;;;5.97;;
11646;SDS011;5880;52.342;9.662;2024-01-10T04:00:32;10.83;;;6.93;;
11646;SDS011;5880;52.342;9.662;2024-01-10T04:02:58;11.13;;;6.77;;
11646;SDS011;5880;52.342;9.662;2024-01-10T04:05:24;13.97;;;7.23;;
11646;SDS011;5880;52.342;9.662;2024-01-10T04:07:50;12.13;;;7.07;;
11646;SDS011;5880;52.342;9.662;2024-01-10T04:10:17;12.63;;;7.37;;
11646;SDS011;5880;52.342;9.662;2024-01-10T04:12:43;13.53;;;7.93;;
11646;SDS011;5880;52.342;9.662;2024-01-10T04:15:10;11.93;;;7.27;;
11646;SDS011;5880;52.342;9.662;2024-01-10T04:17:37;11.20;;;6.70;;
11646;SDS011;5880;52.342;9.662;2024-01-10T04:20:03;11.10;;;6.33;;
11646;SDS011;5880;52.342;9.662;2024-01-10T04:22:30;11.93;;;7.30;;
11646;SDS011;5880;52.342;9.662;2024-01-10T04:24:57;11.40;;;6.40;;
11646;SDS011;5880;52.342;9.662;2024-01-10T04:27:27;13.57;;;7.07;;
11646;SDS011;5880;52.342;9.662;2024-01-10T04:29:53;12.23;;;6.97;;
11646;SDS011;5880;52.342;9.662;2024-01-10T04:32:19;13.80;;;8.27;;
11646;SDS011;5880;52.342;9.662;2024-01-10T04:34:45;12.10;;;7.70;;
11646;SDS011;5880;52.342;9.662;2024-01-10T04:37:11;12.63;;;7.73;;
11646;SDS011;5880;52.342;9.662;2024-01-10T04:39:37;13.90;;;8.00;;
11646;SDS011;5880;52.342;9.662;2024-01-10T04:42:03;13.33;;;7.53;;
11646;SDS011;5880;52.342;9.662;2024-01-10T04:44:30;13.80;;;7.90;;
11646;SDS011;5880;52.342;9.662;2024-01-10T04:46:55;13.37;;;8.00;;
11646;SDS011;5880;52.342;9.662;2024-01-10T04:49:21;13.30;;;8.40;;
11646;SDS011;5880;52.342;9.662;2024-01-10T04:51:48;12.53;;;7.93;;
11646;SDS011;5880;52.342;9.662;2024-01-10T04:54:15;12.70;;;7.67;;
11646;SDS011;5880;52.342;9.662;2024-01-10T04:56:40;13.50;;;7.30;;
11646;SDS011;5880;52.342;9.662;2024-01-10T04:59:06;13.20;;;7.87;;
11646;SDS011;5880;52.342;9.662;2024-01-10T05:01:32;12.53;;;7.63;;
11646;SDS011;5880;52.342;9.662;2024-01-10T05:03:57;12.50;;;7.57;;
11646;SDS011;5880;52.342;9.662;2024-01-10T05:06:23;13.90;;;7.87;;
11646;SDS011;5880;52.342;9.662;2024-01-10T05:08:49;13.13;;;8.10;;
11646;SDS011;5880;52.342;9.662;2024-01-10T05:11:15;15.27;;;8.00;;
11646;SDS011;5880;52.342;9.662;2024-01-10T05:13:42;14.13;;;8.17;;
11646;SDS011;5880;52.342;9.662;2024-01-10T05:16:09;12.43;;;7.57;;
11646;SDS011;5880;52.342;9.662;2024-01-10T05:18:35;10.43;;;7.37;;
11646;SDS011;5880;52.342;9.662;2024-01-10T05:21:01;15.33;;;7.47;;
11646;SDS011;5880;52.342;9.662;2024-01-10T05:23:28;14.83;;;7.80;;
11646;SDS011;5880;52.342;9.662;2024-01-10T05:25:54;13.63;;;7.83;;
11646;SDS011;5880;52.342;9.662;2024-01-10T05:28:20;13.67;;;7.10;;
11646;SDS011;5880;52.342;9.662;2024-01-10T05:30:46;12.23;;;7.70;;
11646;SDS011;5880;52.342;9.662;2024-01-10T05:33:11;11.87;;;7.33;;
11646;SDS011;5880;52.342;9.662;2024-01-10T05:35:40;12.93;;;7.03;;
11646;SDS011;5880;52.342;9.662;2024-01-10T05:38:07;12.93;;;7.33;;
11646;SDS011;5880;52.342;9.662;2024-01-10T05:40:32;13.50;;;7.47;;
11646;SDS011;5880;52.342;9.662;2024-01-10T05:42:58;15.70;;;7.63;;
11646;SDS011;5880;52.342;9.662;2024-01-10T05:45:27;10.53;;;7.23;;
11646;SDS011;5880;52.342;9.662;2024-01-10T05:47:53;13.80;;;7.07;;
11646;SDS011;5880;52.342;9.662;2024-01-10T05:50:19;11.33;;;7.03;;
11646;SDS011;5880;52.342;9.662;2024-01-10T05:52:46;12.60;;;7.57;;
11646;SDS011;5880;52.342;9.662;2024-01-10T05:55:12;11.03;;;6.77;;
11646;SDS011;5880;52.342;9.662;2024-01-10T05:57:38;12.27;;;7.60;;
11646;SDS011;5880;52.342;9.662;2024-01-10T06:00:05;9.33;;;6.70;;
11646;SDS011;5880;52.342;9.662;2024-01-10T06:02:41;11.23;;;7.40;;
11646;SDS011;5880;52.342;9.662;2024-01-10T06:07:37;13.90;;;8.47;;
11646;SDS011;5880;52.342;9.662;2024-01-10T06:10:04;16.63;;;8.60;;
11646;SDS011;5880;52.342;9.662;2024-01-10T06:12:31;16.60;;;8.90;;
11646;SDS011;5880;52.342;9.662;2024-01-10T06:14:56;14.33;;;8.77;;
11646;SDS011;5880;52.342;9.662;2024-01-10T06:17:22;16.70;;;9.27;;
11646;SDS011;5880;52.342;9.662;2024-01-10T06:19:49;15.30;;;9.63;;
11646;SDS011;5880;52.342;9.662;2024-01-10T06:22:15;22.93;;;15.77;;
11646;SDS011;5880;52.342;9.662;2024-01-10T06:24:41;24.70;;;16.80;;
11646;SDS011;5880;52.342;9.662;2024-01-10T06:27:07;25.37;;;15.07;;
11646;SDS011;5880;52.342;9.662;2024-01-10T06:29:34;21.10;;;12.47;;
11646;SDS011;5880;52.342;9.662;2024-01-10T06:32:01;21.73;;;13.20;;
11646;SDS011;5880;52.342;9.662;2024-01-10T06:34:31;27.20;;;15.43;;
11646;SDS011;5880;52.342;9.662;2024-01-10T06:36:57;19.63;;;12.07;;
11646;SDS011;5880;52.342;9.662;2024-01-10T06:39:23;22.57;;;13.83;;
11646;SDS011;5880;52.342;9.662;2024-01-10T06:41:49;19.60;;;12.27;;
11646;SDS011;5880;52.342;9.662;2024-01-10T06:44:15;20.87;;;12.23;;
11646;SDS011;5880;52.342;9.662;2024-01-10T06:46:44;19.43;;;11.50;;
11646;SDS011;5880;52.342;9.662;2024-01-10T06:49:10;19.83;;;10.73;;
11646;SDS011;5880;52.342;9.662;2024-01-10T06:51:36;20.13;;;12.50;;
11646;SDS011;5880;52.342;9.662;2024-01-10T06:54:02;22.53;;;13.33;;
11646;SDS011;5880;52.342;9.662;2024-01-10T06:56:29;66.43;;;40.03;;
11646;SDS011;5880;52.342;9.662;2024-01-10T06:58:58;64.43;;;31.00;;
11646;SDS011;5880;52.342;9.662;2024-01-10T07:01:25;65.27;;;34.27;;
11646;SDS011;5880;52.342;9.662;2024-01-10T07:03:54;48.03;;;22.07;;
11646;SDS011;5880;52.342;9.662;2024-01-10T07:06:20;33.67;;;16.43;;
11646;SDS011;5880;52.342;9.662;2024-01-10T07:08:48;33.10;;;16.70;;
11646;SDS011;5880;52.342;9.662;2024-01-10T07:11:17;25.70;;;13.60;;
11646;SDS011;5880;52.342;9.662;2024-01-10T07:13:46;26.77;;;14.47;;
11646;SDS011;5880;52.342;9.662;2024-01-10T07:16:12;28.40;;;13.50;;
11646;SDS011;5880;52.342;9.662;2024-01-10T07:18:40;26.50;;;12.60;;
11646;SDS011;5880;52.342;9.662;2024-01-10T07:21:06;20.00;;;11.37;;
11646;SDS011;5880;52.342;9.662;2024-01-10T07:23:34;21.73;;;11.03;;
11646;SDS011;5880;52.342;9.662;2024-01-10T07:26:00;19.07;;;11.13;;
11646;SDS011;5880;52.342;9.662;2024-01-10T07:28:26;19.30;;;11.77;;
11646;SDS011;5880;52.342;9.662;2024-01-10T07:30:51;20.57;;;11.83;;
11646;SDS011;5880;52.342;9.662;2024-01-10T07:33:17;21.23;;;11.37;;
11646;SDS011;5880;52.342;9.662;2024-01-10T07:35:43;21.93;;;12.60;;
11646;SDS011;5880;52.342;9.662;2024-01-10T07:38:08;24.10;;;13.50;;
11646;SDS011;5880;52.342;9.662;2024-01-10T07:40:34;25.37;;;12.93;;
11646;SDS011;5880;52.342;9.662;2024-01-10T07:43:01;26.73;;;12.73;;
11646;SDS011;5880;52.342;9.662;2024-01-10T07:45:27;25.83;;;14.00;;
11646;SDS011;5880;52.342;9.662;2024-01-10T07:47:53;25.37;;;12.93;;
11646;SDS011;5880;52.342;9.662;2024-01-10T07:50:19;26.60;;;13.33;;
11646;SDS011;5880;52.342;9.662;2024-01-10T07:52:45;24.07;;;12.83;;
11646;SDS011;5880;52.342;9.662;2024-01-10T07:55:11;21.43;;;13.33;;
11646;SDS011;5880;52.342;9.662;2024-01-10T07:57:37;21.60;;;13.03;;
11646;SDS011;5880;52.342;9.662;2024-01-10T08:00:04;24.73;;;13.60;;
11646;SDS011;5880;52.342;9.662;2024-01-10T08:02:35;24.17;;;12.00;;
11646;SDS011;5880;52.342;9.662;2024-01-10T08:05:02;23.17;;;12.47;;
11646;SDS011;5880;52.342;9.662;2024-01-10T08:07:33;20.67;;;11.40;;
11646;SDS011;5880;52.342;9.662;2024-01-10T08:10:02;18.90;;;11.43;;
11646;SDS011;5880;52.342;9.662;2024-01-10T08:12:33;20.17;;;12.27;;
11646;SDS011;5880;52.342;9.662;2024-01-10T08:14:58;21.80;;;11.73;;
11646;SDS011;5880;52.342;9.662;2024-01-10T08:17:24;21.63;;;11.43;;
11646;SDS011;5880;52.342;9.662;2024-01-10T08:19:50;24.73;;;14.77;;
11646;SDS011;5880;52.342;9.662;2024-01-10T08:22:16;28.67;;;14.50;;
11646;SDS011;5880;52.342;9.662;2024-01-10T08:24:44;31.60;;;16.23;;
11646;SDS011;5880;52.342;9.662;2024-01-10T08:27:11;32.57;;;16.27;;
11646;SDS011;5880;52.342;9.662;2024-01-10T08:29:37;34.03;;;17.57;;
11646;SDS011;5880;52.342;9.662;2024-01-10T08:32:03;31.90;;;16.60;;
11646;SDS011;5880;52.342;9.662;2024-01-10T08:34:29;28.60;;;14.83;;
11646;SDS011;5880;52.342;9.662;2024-01-10T08:36:54;25.67;;;13.53;;
11646;SDS011;5880;52.342;9.662;2024-01-10T08:39:20;22.33;;;12.63;;
11646;SDS011;5880;52.342;9.662;2024-01-10T08:41:47;26.87;;;14.60;;
11646;SDS011;5880;52.342;9.662;2024-01-10T08:44:12;30.93;;;15.20;;
11646;SDS011;5880;52.342;9.662;2024-01-10T08:46:39;28.73;;;14.00;;
11646;SDS011;5880;52.342;9.662;2024-01-10T08:49:05;30.57;;;15.37;;
11646;SDS011;5880;52.342;9.662;2024-01-10T08:51:30;30.00;;;14.63;;
11646;SDS011;5880;52.342;9.662;2024-01-10T08:53:56;25.50;;;14.10;;
11646;SDS011;5880;52.342;9.662;2024-01-10T08:56:22;37.70;;;17.70;;
11646;SDS011;5880;52.342;9.662;2024-01-10T08:58:49;28.00;;;15.90;;
11646;SDS011;5880;52.342;9.662;2024-01-10T09:01:14;27.73;;;14.73;;
11646;SDS011;5880;52.342;9.662;2024-01-10T09:03:40;26.10;;;13.97;;
11646;SDS011;5880;52.342;9.662;2024-01-10T09:06:06;30.33;;;16.30;;
11646;SDS011;5880;52.342;9.662;2024-01-10T09:08:34;29.90;;;15.87;;
11646;SDS011;5880;52.342;9.662;2024-01-10T09:11:00;29.13;;;14.80;;
11646;SDS011;5880;52.342;9.662;2024-01-10T09:13:26;30.13;;;16.73;;
11646;SDS011;5880;52.342;9.662;2024-01-10T09:15:52;29.63;;;16.50;;
11646;SDS011;5880;52.342;9.662;2024-01-10T09:18:17;31.83;;;17.57;;
11646;SDS011;5880;52.342;9.662;2024-01-10T09:20:43;33.97;;;17.07;;
11646;SDS011;5880;52.342;9.662;2024-01-10T09:23:09;28.23;;;16.30;;
11646;SDS011;5880;52.342;9.662;2024-01-10T09:25:36;32.27;;;16.13;;
11646;SDS011;5880;52.342;9.662;2024-01-10T09:28:01;26.77;;;14.90;;
11646;SDS011;5880;52.342;9.662;2024-01-10T09:30:29;27.50;;;14.87;;
11646;SDS011;5880;52.342;9.662;2024-01-10T09:32:55;30.37;;;16.70;;
11646;SDS011;5880;52.342;9.662;2024-01-10T09:35:21;30.07;;;16.27;;
11646;SDS011;5880;52.342;9.662;2024-01-10T09:37:47;26.30;;;15.70;;
11646;SDS011;5880;52.342;9.662;2024-01-10T09:40:15;30.43;;;16.73;;
11646;SDS011;5880;52.342;9.662;2024-01-10T09:42:41;31.00;;;15.80;;
11646;SDS011;5880;52.342;9.662;2024-01-10T09:45:09;28.70;;;15.60;;
11646;SDS011;5880;52.342;9.662;2024-01-10T09:47:37;27.90;;;16.23;;
11646;SDS011;5880;52.342;9.662;2024-01-10T09:50:07;33.93;;;18.13;;
11646;SDS011;5880;52.342;9.662;2024-01-10T09:52:39;28.40;;;16.00;;
11646;SDS011;5880;52.342;9.662;2024-01-10T09:55:16;28.10;;;15.67;;
11646;SDS011;5880;52.342;9.662;2024-01-10T09:57:46;26.20;;;14.83;;
11646;SDS011;5880;52.342;9.662;2024-01-10T10:00:12;33.30;;;16.47;;
11646;SDS011;5880;52.342;9.662;2024-01-10T10:02:41;33.93;;;18.57;;
11646;SDS011;5880;52.342;9.662;2024-01-10T10:05:08;32.57;;;18.03;;
11646;SDS011;5880;52.342;9.662;2024-01-10T10:07:44;29.80;;;17.03;;
11646;SDS011;5880;52.342;9.662;2024-01-10T10:10:10;33.33;;;18.00;;
11646;SDS011;5880;52.342;9.662;2024-01-10T10:12:50;35.57;;;18.63;;
11646;SDS011;5880;52.342;9.662;2024-01-10T10:15:18;34.67;;;17.20;;
11646;SDS011;5880;52.342;9.662;2024-01-10T10:17:52;32.43;;;17.73;;
11646;SDS011;5880;52.342;9.662;2024-01-10T10:20:38;28.80;;;15.70;;
11646;SDS011;5880;52.342;9.662;2024-01-10T10:23:04;29.60;;;14.70;;
11646;SDS011;5880;52.342;9.662;2024-01-10T10:25:35;30.23;;;15.97;;
11646;SDS011;5880;52.342;9.662;2024-01-10T10:28:07;26.43;;;15.00;;
11646;SDS011;5880;52.342;9.662;2024-01-10T10:30:33;27.67;;;15.97;;
11646;SDS011;5880;52.342;9.662;2024-01-10T10:32:59;28.63;;;16.30;;
11646;SDS011;5880;52.342;9.662;2024-01-10T10:35:26;31.40;;;17.40;;
11646;SDS011;5880;52.342;9.662;2024-01-10T10:37:52;29.00;;;16.20;;
11646;SDS011;5880;52.342;9.662;2024-01-10T10:40:19;28.97;;;17.20;;
11646;SDS011;5880;52.342;9.662;2024-01-10T10:42:47;32.37;;;20.10;;
11646;SDS011;5880;52.342;9.662;2024-01-10T10:45:20;37.97;;;20.63;;
11646;SDS011;5880;52.342;9.662;2024-01-10T10:47:50;35.07;;;18.60;;
11646;SDS011;5880;52.342;9.662;2024-01-10T10:50:27;33.00;;;18.27;;
11646;SDS011;5880;52.342;9.662;2024-01-10T10:52:58;30.33;;;17.17;;
11646;SDS011;5880;52.342;9.662;2024-01-10T10:55:28;30.33;;;17.47;;
11646;SDS011;5880;52.342;9.662;2024-01-10T10:57:55;34.63;;;19.97;;
11646;SDS011;5880;52.342;9.662;2024-01-10T11:00:22;32.37;;;17.63;;
11646;SDS011;5880;52.342;9.662;2024-01-10T11:02:54;32.37;;;17.50;;
11646;SDS011;5880;52.342;9.662;2024-01-10T11:05:22;31.50;;;18.83;;
11646;SDS011;5880;52.342;9.662;2024-01-10T11:07:49;34.93;;;18.43;;
11646;SDS011;5880;52.342;9.662;2024-01-10T11:10:30;33.23;;;17.37;;
11646;SDS011;5880;52.342;9.662;2024-01-10T11:16:04;34.70;;;19.17;;
11646;SDS011;5880;52.342;9.662;2024-01-10T11:22:22;33.53;;;18.40;;
11646;SDS011;5880;52.342;9.662;2024-01-10T11:25:05;31.67;;;17.33;;
11646;SDS011;5880;52.342;9.662;2024-01-10T11:27:31;34.17;;;18.23;;
11646;SDS011;5880;52.342;9.662;2024-01-10T11:29:57;30.77;;;17.47;;
11646;SDS011;5880;52.342;9.662;2024-01-10T11:32:23;32.97;;;19.73;;
11646;SDS011;5880;52.342;9.662;2024-01-10T11:34:50;31.67;;;18.57;;
11646;SDS011;5880;52.342;9.662;2024-01-10T11:37:21;37.47;;;20.50;;
11646;SDS011;5880;52.342;9.662;2024-01-10T11:39:47;33.80;;;18.53;;
11646;SDS011;5880;52.342;9.662;2024-01-10T11:42:22;35.13;;;19.27;;
11646;SDS011;5880;52.342;9.662;2024-01-10T11:45:09;39.53;;;21.07;;
11646;SDS011;5880;52.342;9.662;2024-01-10T11:47:37;34.07;;;20.47;;
11646;SDS011;5880;52.342;9.662;2024-01-10T11:50:06;37.27;;;20.20;;
11646;SDS011;5880;52.342;9.662;2024-01-10T11:52:33;34.37;;;18.97;;
11646;SDS011;5880;52.342;9.662;2024-01-10T11:55:01;31.63;;;17.93;;
11646;SDS011;5880;52.342;9.662;2024-01-10T11:57:28;30.23;;;17.17;;
11646;SDS011;5880;52.342;9.662;2024-01-10T11:59:57;29.37;;;16.40;;
11646;SDS011;5880;52.342;9.662;2024-01-10T12:02:29;36.20;;;20.83;;
11646;SDS011;5880;52.342;9.662;2024-01-10T12:04:55;32.33;;;18.97;;
11646;SDS011;5880;52.342;9.662;2024-01-10T12:07:20;34.80;;;18.87;;
11646;SDS011;5880;52.342;9.662;2024-01-10T12:09:48;33.67;;;18.40;;
11646;SDS011;5880;52.342;9.662;2024-01-10T12:12:15;34.40;;;18.50;;
11646;SDS011;5880;52.342;9.662;2024-01-10T12:14:41;32.73;;;18.07;;
11646;SDS011;5880;52.342;9.662;2024-01-10T12:17:11;39.37;;;19.60;;
11646;SDS011;5880;52.342;9.662;2024-01-10T12:19:36;35.70;;;19.97;;
11646;SDS011;5880;52.342;9.662;2024-01-10T12:22:03;33.43;;;19.67;;
11646;SDS011;5880;52.342;9.662;2024-01-10T12:24:33;38.07;;;19.47;;
11646;SDS011;5880;52.342;9.662;2024-01-10T12:26:58;32.23;;;18.17;;
11646;SDS011;5880;52.342;9.662;2024-01-10T12:29:24;30.90;;;17.97;;
11646;SDS011;5880;52.342;9.662;2024-01-10T12:31:51;32.40;;;18.67;;
11646;SDS011;5880;52.342;9.662;2024-01-10T12:34:18;40.67;;;20.20;;
11646;SDS011;5880;52.342;9.662;2024-01-10T12:36:46;33.67;;;18.73;;
11646;SDS011;5880;52.342;9.662;2024-01-10T12:39:12;36.07;;;19.53;;
11646;SDS011;5880;52.342;9.662;2024-01-10T12:41:40;40.60;;;20.30;;
11646;SDS011;5880;52.342;9.662;2024-01-10T12:44:06;36.60;;;20.43;;
11646;SDS011;5880;52.342;9.662;2024-01-10T12:46:32;38.57;;;20.47;;
11646;SDS011;5880;52.342;9.662;2024-01-10T12:49:03;36.47;;;19.53;;
11646;SDS011;5880;52.342;9.662;2024-01-10T12:51:32;38.67;;;21.30;;
11646;SDS011;5880;52.342;9.662;2024-01-10T12:54:01;43.43;;;22.47;;
11646;SDS011;5880;52.342;9.662;2024-01-10T12:56:29;38.50;;;20.60;;
11646;SDS011;5880;52.342;9.662;2024-01-10T12:58:55;51.67;;;26.23;;
11646;SDS011;5880;52.342;9.662;2024-01-10T13:01:22;53.83;;;25.93;;
11646;SDS011;5880;52.342;9.662;2024-01-10T13:03:49;43.47;;;21.63;;
11646;SDS011;5880;52.342;9.662;2024-01-10T13:06:15;40.43;;;20.50;;
11646;SDS011;5880;52.342;9.662;2024-01-10T13:08:42;48.83;;;22.83;;
11646;SDS011;5880;52.342;9.662;2024-01-10T13:11:08;40.07;;;20.10;;
11646;SDS011;5880;52.342;9.662;2024-01-10T13:13:35;39.53;;;19.10;;
11646;SDS011;5880;52.342;9.662;2024-01-10T13:16:01;35.57;;;19.20;;
11646;SDS011;5880;52.342;9.662;2024-01-10T13:18:27;35.53;;;19.57;;
11646;SDS011;5880;52.342;9.662;2024-01-10T13:20:53;42.97;;;21.40;;
11646;SDS011;5880;52.342;9.662;2024-01-10T13:23:20;44.73;;;22.97;;
11646;SDS011;5880;52.342;9.662;2024-01-10T13:25:49;46.47;;;21.80;;
11646;SDS011;5880;52.342;9.662;2024-01-10T13:28:16;50.50;;;24.17;;
11646;SDS011;5880;52.342;9.662;2024-01-10T13:30:44;43.53;;;21.20;;
11646;SDS011;5880;52.342;9.662;2024-01-10T13:33:10;37.80;;;19.60;;
11646;SDS011;5880;52.342;9.662;2024-01-10T13:35:36;40.13;;;20.80;;
11646;SDS011;5880;52.342;9.662;2024-01-10T13:38:02;48.03;;;23.33;;
11646;SDS011;5880;52.342;9.662;2024-01-10T13:40:29;42.13;;;21.17;;
11646;SDS011;5880;52.342;9.662;2024-01-10T13:42:56;40.90;;;20.93;;
11646;SDS011;5880;52.342;9.662;2024-01-10T13:45:22;35.97;;;18.23;;
11646;SDS011;5880;52.342;9.662;2024-01-10T13:47:48;33.47;;;18.20;;
11646;SDS011;5880;52.342;9.662;2024-01-10T13:50:14;29.00;;;16.60;;
11646;SDS011;5880;52.342;9.662;2024-01-10T13:52:41;28.67;;;16.10;;
11646;SDS011;5880;52.342;9.662;2024-01-10T13:55:07;32.20;;;17.67;;
11646;SDS011;5880;52.342;9.662;2024-01-10T13:57:34;29.80;;;16.57;;
11646;SDS011;5880;52.342;9.662;2024-01-10T14:00:00;31.33;;;17.00;;
11646;SDS011;5880;52.342;9.662;2024-01-10T14:02:32;32.33;;;17.20;;
11646;SDS011;5880;52.342;9.662;2024-01-10T14:04:58;29.23;;;16.80;;
11646;SDS011;5880;52.342;9.662;2024-01-10T14:07:23;33.03;;;18.37;;
11646;SDS011;5880;52.342;9.662;2024-01-10T14:09:49;29.70;;;16.20;;
11646;SDS011;5880;52.342;9.662;2024-01-10T14:12:19;29.17;;;16.37;;
11646;SDS011;5880;52.342;9.662;2024-01-10T14:14:45;29.23;;;16.20;;
11646;SDS011;5880;52.342;9.662;2024-01-10T14:17:10;29.90;;;16.63;;
11646;SDS011;5880;52.342;9.662;2024-01-10T14:19:36;27.37;;;16.63;;
11646;SDS011;5880;52.342;9.662;2024-01-10T14:22:02;31.80;;;18.27;;
11646;SDS011;5880;52.342;9.662;2024-01-10T14:24:28;29.93;;;17.60;;
11646;SDS011;5880;52.342;9.662;2024-01-10T14:26:53;30.70;;;17.77;;
11646;SDS011;5880;52.342;9.662;2024-01-10T14:29:19;27.53;;;15.97;;
11646;SDS011;5880;52.342;9.662;2024-01-10T14:31:47;31.57;;;16.37;;
11646;SDS011;5880;52.342;9.662;2024-01-10T14:34:13;27.70;;;15.90;;
11646;SDS011;5880;52.342;9.662;2024-01-10T14:36:40;29.80;;;17.30;;
11646;SDS011;5880;52.342;9.662;2024-01-10T14:39:06;27.17;;;16.40;;
11646;SDS011;5880;52.342;9.662;2024-01-10T14:41:37;31.30;;;17.17;;
11646;SDS011;5880;52.342;9.662;2024-01-10T14:44:04;28.63;;;16.27;;
11646;SDS011;5880;52.342;9.662;2024-01-10T14:46:30;31.47;;;17.33;;
11646;SDS011;5880;52.342;9.662;2024-01-10T14:48:56;28.80;;;16.83;;
11646;SDS011;5880;52.342;9.662;2024-01-10T14:51:21;30.00;;;16.20;;